Airfield :







YOU CAN JOIN US ON...

 
LOGIN :

Register | Disclaimer

   EN    FR    IT 

 









Legend :    VFR   Marginal VFR   IFR   Intensive IFR   Very Intensive IFR
Visi :
Ceiling :
>= 8 km
>= 3000ft
5 to 8 km
1000 to 3000 ft
1500m to 5 km
500 to 1000 ft
800 to 1500m
200 to 500 ft
< 800m
< 200 ft
Symbols :   Thunderstorms  Fog  Heavy snow  Heavy precipitations  Wind > 20 kt







- Airport Elevation : 545 ft


KLCI - Laconia Municipal

CURRENT METAR :
  • 180156Z AUTO 06007KT 10SM BKN050 OVC065 16/09 A3020 RMK AO2 SLP229 T01560094

EXPIRED METARs :
  • 180056Z AUTO 06006KT 10SM BKN049 OVC070 16/11 A3019 RMK AO2 SLP226 T01560106
  • 172356Z AUTO 09003KT 10SM BKN042 OVC050 16/11 A3018 RMK AO2 SLP221 T01560111 10194 20156 53013

TAF N/A
No reported NOTAMs for that airfield.



MET'MAP, your aeronautical weather chart ! - Copyright ORBIFLY December 2007 - Disclaimer

ORBIFLY MET'MAP TEAM :

Programming & Development : Alexandra Zaïnal
Concept & Development : Baudouin d'Aumeries
Co-Development & Prog : Marc-Olivier Méhu
Technical & hardware support : Manuel Goepfert

Contact : metmap@orbifly.com




SOURCES & CREDITS :

   NOAA